Time;durP1;ratioP1;P1;durP2;ratioP2;P2;SDS_P1;SDS_P2;PMS_P1;PMS_P2;Temp;Humidity;BMP_temperature;BMP_pressure;BME280_temperature;BME280_humidity;BME280_pressure;Samples;Min_cycle;Max_cycle;Signal;HPM_P1;HPM_P2
2021/07/22 00:02:10;;;;;;;16.58;11.68;;;;;;;;;;5011216;28;20064;-78
2021/07/22 00:04:36;;;;;;;13.23;11.77;;;;;;;;;;4991177;28;20057;-78
2021/07/22 00:07:01;;;;;;;16.90;12.68;;;;;;;;;;5021472;28;20177;-79
2021/07/22 00:09:27;;;;;;;17.45;12.40;;;;;;;;;;4991855;28;20042;-78
2021/07/22 00:11:52;;;;;;;19.55;12.38;;;;;;;;;;5006611;28;20121;-79
2021/07/22 00:14:18;;;;;;;15.95;12.82;;;;;;;;;;4994618;28;20060;-79
2021/07/22 00:16:45;;;;;;;17.13;13.02;;;;;;;;;;5011741;28;20046;-78
2021/07/22 00:19:11;;;;;;;13.93;11.55;;;;;;;;;;4978327;28;20041;-79
2021/07/22 00:21:36;;;;;;;20.08;13.65;;;;;;;;;;4993896;28;20041;-79
2021/07/22 00:24:02;;;;;;;16.90;13.07;;;;;;;;;;5015359;28;20049;-79
2021/07/22 00:26:27;;;;;;;16.88;12.35;;;;;;;;;;5031469;28;20037;-79
2021/07/22 00:28:53;;;;;;;15.68;12.38;;;;;;;;;;4992617;28;20053;-79
2021/07/22 00:31:18;;;;;;;16.17;13.65;;;;;;;;;;4994573;28;20042;-78
2021/07/22 00:33:44;;;;;;;13.85;12.27;;;;;;;;;;4999885;28;20068;-79
2021/07/22 00:36:09;;;;;;;14.05;10.98;;;;;;;;;;5010169;28;20405;-79
2021/07/22 00:38:35;;;;;;;17.20;11.82;;;;;;;;;;5047399;28;20038;-79
2021/07/22 00:41:01;;;;;;;14.88;12.45;;;;;;;;;;4995439;28;20034;-79
2021/07/22 00:43:26;;;;;;;17.25;13.45;;;;;;;;;;5005281;28;20065;-78
2021/07/22 00:45:52;;;;;;;19.75;12.60;;;;;;;;;;5010866;28;20038;-79
2021/07/22 00:48:17;;;;;;;15.90;12.20;;;;;;;;;;4994354;28;20041;-79
2021/07/22 00:50:42;;;;;;;17.58;13.35;;;;;;;;;;4993238;28;20073;-78
2021/07/22 00:53:08;;;;;;;14.77;12.35;;;;;;;;;;5008268;28;20060;-79
2021/07/22 00:55:33;;;;;;;14.65;11.40;;;;;;;;;;4996795;28;20060;-79
2021/07/22 00:57:59;;;;;;;14.80;12.73;;;;;;;;;;4994436;28;20492;-78
2021/07/22 01:00:24;;;;;;;14.10;12.50;;;;;;;;;;4992930;28;20164;-81
2021/07/22 01:02:50;;;;;;;14.73;12.07;;;;;;;;;;4962897;28;20420;-81
2021/07/22 01:05:18;;;;;;;15.10;11.73;;;;;;;;;;4961648;28;20026;-80
2021/07/22 01:07:44;;;;;;;14.98;10.77;;;;;;;;;;5010553;28;20045;-80
2021/07/22 01:10:09;;;;;;;13.15;11.55;;;;;;;;;;4977641;28;20080;-81
2021/07/22 01:12:35;;;;;;;13.18;11.77;;;;;;;;;;4961197;28;20111;-80
2021/07/22 01:15:00;;;;;;;14.57;11.43;;;;;;;;;;4977429;28;20081;-80
2021/07/22 01:17:44;;;;;;;15.75;12.05;;;;;;;;;;5005038;28;20049;-81
2021/07/22 01:20:14;;;;;;;15.13;11.77;;;;;;;;;;5029153;28;20415;-81
2021/07/22 01:22:40;;;;;;;13.13;11.60;;;;;;;;;;4995519;28;20064;-80
2021/07/22 01:25:06;;;;;;;13.68;11.93;;;;;;;;;;4980651;28;20403;-80
2021/07/22 01:27:32;;;;;;;14.18;12.02;;;;;;;;;;4981806;28;20040;-80
2021/07/22 01:29:58;;;;;;;16.85;12.25;;;;;;;;;;4998287;28;20038;-80
2021/07/22 01:32:23;;;;;;;16.17;12.57;;;;;;;;;;4981721;28;20042;-79
2021/07/22 01:34:49;;;;;;;16.73;13.18;;;;;;;;;;4981521;28;20038;-80
2021/07/22 01:37:14;;;;;;;18.83;12.75;;;;;;;;;;4991471;28;20041;-80
2021/07/22 01:39:40;;;;;;;17.75;12.45;;;;;;;;;;5017314;28;20033;-80
2021/07/22 01:42:06;;;;;;;12.68;11.18;;;;;;;;;;4982239;28;20104;-80
2021/07/22 01:44:32;;;;;;;15.63;12.20;;;;;;;;;;5029917;28;20068;-80
2021/07/22 01:46:58;;;;;;;14.52;12.10;;;;;;;;;;4997431;28;20427;-80
2021/07/22 01:49:24;;;;;;;18.70;12.43;;;;;;;;;;4980404;28;20042;-79
2021/07/22 01:51:49;;;;;;;12.82;11.45;;;;;;;;;;4981285;28;20511;-80
2021/07/22 01:54:15;;;;;;;16.38;12.05;;;;;;;;;;4981324;28;20034;-80
2021/07/22 01:56:40;;;;;;;15.65;11.50;;;;;;;;;;4997365;28;20034;-80
2021/07/22 01:59:06;;;;;;;14.45;12.23;;;;;;;;;;4980917;28;20037;-80
2021/07/22 02:01:31;;;;;;;16.38;11.95;;;;;;;;;;4994349;28;20042;-79
2021/07/22 02:03:57;;;;;;;13.80;12.43;;;;;;;;;;5012882;28;20461;-80
2021/07/22 02:06:22;;;;;;;14.85;11.73;;;;;;;;;;4980444;28;20056;-80
2021/07/22 02:08:48;;;;;;;16.98;11.73;;;;;;;;;;5030037;28;20049;-80
2021/07/22 02:11:13;;;;;;;16.00;11.65;;;;;;;;;;4996880;28;20054;-80
2021/07/22 02:13:39;;;;;;;13.27;11.32;;;;;;;;;;4980704;28;20037;-80
2021/07/22 02:16:07;;;;;;;15.20;12.32;;;;;;;;;;4980764;28;20050;-79
2021/07/22 02:18:33;;;;;;;13.00;11.45;;;;;;;;;;4980442;28;20496;-80
2021/07/22 02:20:59;;;;;;;12.82;11.52;;;;;;;;;;4963727;28;20045;-80
2021/07/22 02:23:24;;;;;;;14.18;12.15;;;;;;;;;;4980424;28;20041;-80
2021/07/22 02:25:50;;;;;;;13.18;11.23;;;;;;;;;;4993145;28;20046;-80
2021/07/22 02:28:15;;;;;;;14.35;11.63;;;;;;;;;;5010022;28;20038;-80
2021/07/22 02:30:40;;;;;;;14.40;12.35;;;;;;;;;;5024110;28;20425;-80
2021/07/22 02:33:07;;;;;;;13.27;11.75;;;;;;;;;;5009245;28;20052;-80
2021/07/22 02:35:33;;;;;;;13.57;11.93;;;;;;;;;;4991806;28;20046;-80
2021/07/22 02:37:58;;;;;;;13.75;12.27;;;;;;;;;;5009866;28;20103;-80
2021/07/22 02:40:24;;;;;;;14.27;11.63;;;;;;;;;;4999691;28;20048;-80
2021/07/22 02:42:49;;;;;;;13.50;11.82;;;;;;;;;;5006500;28;20034;-80
2021/07/22 02:45:15;;;;;;;13.82;12.30;;;;;;;;;;5025971;28;20065;-80
2021/07/22 02:47:40;;;;;;;14.82;11.60;;;;;;;;;;5009136;28;20404;-81
2021/07/22 02:50:06;;;;;;;13.70;11.45;;;;;;;;;;5026005;28;20038;-80
2021/07/22 02:52:38;;;;;;;13.43;11.43;;;;;;;;;;5010257;28;20032;-80
2021/07/22 02:55:04;;;;;;;14.13;11.98;;;;;;;;;;4964059;28;20403;-80
2021/07/22 02:57:30;;;;;;;13.25;11.85;;;;;;;;;;4980558;28;20042;-80
2021/07/22 02:59:56;;;;;;;14.30;11.30;;;;;;;;;;4992799;28;20038;-80
2021/07/22 03:02:22;;;;;;;13.30;12.00;;;;;;;;;;4992792;28;20041;-80
2021/07/22 03:04:47;;;;;;;15.00;11.38;;;;;;;;;;5010253;28;20046;-80
2021/07/22 03:07:14;;;;;;;12.48;11.18;;;;;;;;;;4996212;28;20068;-80
2021/07/22 03:09:39;;;;;;;13.40;11.90;;;;;;;;;;5012021;28;20092;-80
2021/07/22 03:12:05;;;;;;;12.07;10.73;;;;;;;;;;4963266;28;20029;-80
2021/07/22 03:14:32;;;;;;;13.07;11.13;;;;;;;;;;4983684;28;20390;-80
2021/07/22 03:16:57;;;;;;;14.73;12.23;;;;;;;;;;4992621;28;20042;-80
2021/07/22 03:19:23;;;;;;;13.27;11.68;;;;;;;;;;4993192;28;20073;-80
2021/07/22 03:21:48;;;;;;;14.48;11.70;;;;;;;;;;4992147;28;20034;-80
2021/07/22 03:24:13;;;;;;;13.90;11.57;;;;;;;;;;5015603;28;20046;-81
2021/07/22 03:26:39;;;;;;;13.07;11.70;;;;;;;;;;4995962;28;20076;-81
2021/07/22 03:29:05;;;;;;;13.15;11.35;;;;;;;;;;4992886;28;20104;-80
2021/07/22 03:31:30;;;;;;;14.05;12.25;;;;;;;;;;4992074;28;20031;-81
2021/07/22 03:33:56;;;;;;;15.13;10.63;;;;;;;;;;5012657;28;20041;-80
2021/07/22 03:36:21;;;;;;;13.77;12.02;;;;;;;;;;4998428;28;20030;-80
2021/07/22 03:38:47;;;;;;;12.65;11.35;;;;;;;;;;5011896;28;20075;-81
2021/07/22 03:41:15;;;;;;;12.65;11.38;;;;;;;;;;4979642;28;20124;-80
2021/07/22 03:43:41;;;;;;;13.60;11.50;;;;;;;;;;4995069;28;20447;-80
2021/07/22 03:46:07;;;;;;;13.02;11.13;;;;;;;;;;4961426;28;20037;-80
2021/07/22 03:48:32;;;;;;;13.25;11.02;;;;;;;;;;4979121;28;20041;-81
2021/07/22 03:50:58;;;;;;;12.75;10.85;;;;;;;;;;4978874;28;20030;-80
2021/07/22 03:53:23;;;;;;;12.20;10.98;;;;;;;;;;4979153;28;20091;-80
2021/07/22 03:55:49;;;;;;;13.43;11.68;;;;;;;;;;4959749;28;20089;-81
2021/07/22 03:58:14;;;;;;;12.65;11.35;;;;;;;;;;5008128;28;20030;-80
2021/07/22 04:00:40;;;;;;;14.65;12.35;;;;;;;;;;5006540;28;20038;-81
2021/07/22 04:03:06;;;;;;;14.88;11.82;;;;;;;;;;4975548;28;20044;-81
2021/07/22 04:05:32;;;;;;;13.10;11.27;;;;;;;;;;4988800;28;20118;-80
2021/07/22 04:07:57;;;;;;;15.65;11.60;;;;;;;;;;5013744;28;20045;-80
2021/07/22 04:10:24;;;;;;;13.93;10.88;;;;;;;;;;4991527;28;20126;-80
2021/07/22 04:12:59;;;;;;;13.00;10.98;;;;;;;;;;5024074;28;20454;-80
2021/07/22 04:15:25;;;;;;;14.88;11.88;;;;;;;;;;5017856;28;20072;-81
2021/07/22 04:17:51;;;;;;;12.85;11.63;;;;;;;;;;4978504;28;20554;-81
2021/07/22 04:20:17;;;;;;;13.70;11.00;;;;;;;;;;5007218;28;20108;-80
2021/07/22 04:22:43;;;;;;;12.65;11.35;;;;;;;;;;4991596;28;20074;-80
2021/07/22 04:25:09;;;;;;;15.13;11.75;;;;;;;;;;4992375;28;20048;-80
2021/07/22 04:27:34;;;;;;;13.50;11.90;;;;;;;;;;4991326;28;20030;-81
2021/07/22 04:30:01;;;;;;;13.00;11.10;;;;;;;;;;5000301;28;20030;-81
2021/07/22 04:32:27;;;;;;;13.00;11.70;;;;;;;;;;5011041;28;20042;-80
2021/07/22 04:34:52;;;;;;;13.20;10.88;;;;;;;;;;4990852;28;20035;-80
2021/07/22 04:37:18;;;;;;;12.23;10.70;;;;;;;;;;5046259;28;20143;-80
2021/07/22 04:39:43;;;;;;;12.60;11.30;;;;;;;;;;5002986;28;20116;-81
2021/07/22 04:42:09;;;;;;;21.27;11.23;;;;;;;;;;4993957;28;20038;-81
2021/07/22 04:44:34;;;;;;;13.05;11.75;;;;;;;;;;4994134;28;20064;-81
2021/07/22 04:46:59;;;;;;;12.45;11.15;;;;;;;;;;4978323;28;20052;-81
2021/07/22 04:49:25;;;;;;;12.98;10.75;;;;;;;;;;4961822;28;20381;-80
2021/07/22 04:51:50;;;;;;;12.65;11.35;;;;;;;;;;4961803;28;20073;-81
2021/07/22 04:54:16;;;;;;;13.00;11.35;;;;;;;;;;4962168;28;20071;-81
2021/07/22 04:56:42;;;;;;;12.90;11.60;;;;;;;;;;4977663;28;20084;-81
2021/07/22 04:59:07;;;;;;;12.38;11.07;;;;;;;;;;4993240;28;20096;-80
2021/07/22 05:01:32;;;;;;;12.50;11.30;;;;;;;;;;4991441;28;20034;-81
2021/07/22 05:03:59;;;;;;;11.90;10.70;;;;;;;;;;4991085;28;20042;-80
2021/07/22 05:06:25;;;;;;;15.40;11.63;;;;;;;;;;4990819;28;20049;-80
2021/07/22 05:08:50;;;;;;;12.70;11.40;;;;;;;;;;4993528;28;20484;-81
2021/07/22 05:11:16;;;;;;;12.43;11.07;;;;;;;;;;4990504;28;20034;-80
2021/07/22 05:13:42;;;;;;;12.23;11.00;;;;;;;;;;4974740;28;20045;-80
2021/07/22 05:16:08;;;;;;;12.73;10.38;;;;;;;;;;5011626;28;20121;-80
2021/07/22 05:18:34;;;;;;;12.70;11.32;;;;;;;;;;5010411;28;20087;-81
2021/07/22 05:21:04;;;;;;;11.13;10.00;;;;;;;;;;5010297;28;20046;-80
2021/07/22 05:23:29;;;;;;;11.35;10.25;;;;;;;;;;4978354;28;20046;-80
2021/07/22 05:25:55;;;;;;;11.60;10.40;;;;;;;;;;4961278;28;20100;-80
2021/07/22 05:28:21;;;;;;;12.20;10.57;;;;;;;;;;4994133;28;20400;-80
2021/07/22 05:30:46;;;;;;;14.27;11.10;;;;;;;;;;4961622;28;20026;-80
2021/07/22 05:33:11;;;;;;;12.18;10.93;;;;;;;;;;4993578;28;20042;-80
2021/07/22 05:35:37;;;;;;;12.18;10.95;;;;;;;;;;4993829;28;20099;-80
2021/07/22 05:38:02;;;;;;;11.63;10.43;;;;;;;;;;5010691;28;20110;-80
2021/07/22 05:40:28;;;;;;;11.60;10.40;;;;;;;;;;5005903;28;20460;-80
2021/07/22 05:42:54;;;;;;;11.63;10.20;;;;;;;;;;4961154;28;20049;-80
2021/07/22 05:45:20;;;;;;;10.85;9.75;;;;;;;;;;4993980;28;20088;-80
2021/07/22 05:47:45;;;;;;;12.07;10.73;;;;;;;;;;4994736;28;20113;-81
2021/07/22 05:50:11;;;;;;;12.13;10.55;;;;;;;;;;5006332;28;20121;-80
2021/07/22 05:52:36;;;;;;;12.40;10.48;;;;;;;;;;5017910;28;20189;-80
2021/07/22 05:55:03;;;;;;;12.95;11.55;;;;;;;;;;4990859;28;20034;-80
2021/07/22 05:57:28;;;;;;;12.10;10.57;;;;;;;;;;5009443;28;20042;-80
2021/07/22 05:59:54;;;;;;;10.88;9.55;;;;;;;;;;4993782;28;20390;-80
2021/07/22 06:02:19;;;;;;;11.50;10.30;;;;;;;;;;5023031;28;20425;-80
2021/07/22 06:04:45;;;;;;;12.25;10.93;;;;;;;;;;5025916;28;20021;-80
2021/07/22 06:07:10;;;;;;;11.40;10.30;;;;;;;;;;4974446;28;20054;-80
2021/07/22 06:09:36;;;;;;;12.45;11.13;;;;;;;;;;4990889;28;20061;-81
2021/07/22 06:12:01;;;;;;;12.70;11.15;;;;;;;;;;4993573;28;20501;-80
2021/07/22 06:14:27;;;;;;;12.32;11.13;;;;;;;;;;4977383;28;20042;-80
2021/07/22 06:16:52;;;;;;;13.30;11.40;;;;;;;;;;4985207;28;20049;-80
2021/07/22 06:19:18;;;;;;;11.98;10.55;;;;;;;;;;4963756;28;20451;-80
2021/07/22 06:21:44;;;;;;;13.10;10.88;;;;;;;;;;4994956;28;20042;-80
2021/07/22 06:24:09;;;;;;;13.48;12.00;;;;;;;;;;5009649;28;20031;-80
2021/07/22 06:26:35;;;;;;;11.48;10.20;;;;;;;;;;5015144;28;20039;-80
2021/07/22 06:29:01;;;;;;;12.63;11.27;;;;;;;;;;5012488;28;20069;-80
2021/07/22 06:31:27;;;;;;;12.57;11.23;;;;;;;;;;4993529;28;20500;-80
2021/07/22 06:33:52;;;;;;;13.02;11.32;;;;;;;;;;5010139;28;20073;-80
2021/07/22 06:36:18;;;;;;;16.75;13.00;;;;;;;;;;5015494;28;20037;-80
2021/07/22 06:38:43;;;;;;;18.17;16.27;;;;;;;;;;5019978;28;20061;-80
2021/07/22 06:41:11;;;;;;;19.35;15.63;;;;;;;;;;4995681;28;20064;-80
2021/07/22 06:43:36;;;;;;;21.60;15.93;;;;;;;;;;4964001;28;20503;-79
2021/07/22 06:46:02;;;;;;;21.13;16.67;;;;;;;;;;4980284;28;20057;-79
2021/07/22 06:48:27;;;;;;;19.63;17.58;;;;;;;;;;4969022;28;20030;-80
2021/07/22 06:50:52;;;;;;;23.30;17.92;;;;;;;;;;4975554;28;20046;-80
2021/07/22 06:53:18;;;;;;;21.00;16.92;;;;;;;;;;4997611;28;20401;-80
2021/07/22 06:55:44;;;;;;;21.83;15.75;;;;;;;;;;4999732;28;20514;-80
2021/07/22 06:58:10;;;;;;;20.05;16.02;;;;;;;;;;5009783;28;20087;-80
2021/07/22 07:00:36;;;;;;;17.90;15.23;;;;;;;;;;4978737;28;20176;-80
2021/07/22 07:03:02;;;;;;;20.42;16.05;;;;;;;;;;4963036;28;20603;-79
2021/07/22 07:05:29;;;;;;;21.85;17.67;;;;;;;;;;5000732;28;20120;-79
2021/07/22 07:07:55;;;;;;;20.38;17.13;;;;;;;;;;5005892;28;20104;-79
2021/07/22 07:10:20;;;;;;;22.05;17.85;;;;;;;;;;4994112;28;20081;-79
2021/07/22 07:12:46;;;;;;;22.73;17.42;;;;;;;;;;5015205;28;20069;-79
2021/07/22 07:15:11;;;;;;;21.83;17.13;;;;;;;;;;4987358;28;20094;-79
2021/07/22 07:17:37;;;;;;;23.15;18.45;;;;;;;;;;5015533;28;20411;-80
2021/07/22 07:20:02;;;;;;;22.38;17.67;;;;;;;;;;4963054;28;20046;-79
2021/07/22 07:22:28;;;;;;;24.58;17.70;;;;;;;;;;4979059;28;20026;-80
2021/07/22 07:24:54;;;;;;;19.85;17.15;;;;;;;;;;4963044;28;20412;-79
2021/07/22 07:27:19;;;;;;;19.88;16.50;;;;;;;;;;4979530;28;20034;-79
2021/07/22 07:29:45;;;;;;;22.17;16.23;;;;;;;;;;4993202;28;20087;-79
2021/07/22 07:32:10;;;;;;;20.17;16.30;;;;;;;;;;5011063;28;20030;-80
2021/07/22 07:34:36;;;;;;;17.00;15.13;;;;;;;;;;4978233;28;20125;-80
2021/07/22 07:37:01;;;;;;;17.05;13.60;;;;;;;;;;4967549;28;20038;-79
2021/07/22 07:39:27;;;;;;;19.67;16.02;;;;;;;;;;5027888;28;20041;-79
2021/07/22 07:41:52;;;;;;;17.88;14.80;;;;;;;;;;4995069;28;20038;-80
2021/07/22 07:44:17;;;;;;;19.88;14.52;;;;;;;;;;4978372;28;20066;-79
2021/07/22 07:46:43;;;;;;;19.60;13.68;;;;;;;;;;4962167;28;20512;-80
2021/07/22 07:49:08;;;;;;;15.75;13.55;;;;;;;;;;5006270;28;20030;-79
2021/07/22 07:51:34;;;;;;;15.55;13.77;;;;;;;;;;4962314;28;20107;-79
2021/07/22 07:53:59;;;;;;;19.92;15.38;;;;;;;;;;4978850;28;20037;-80
2021/07/22 07:56:25;;;;;;;19.50;15.27;;;;;;;;;;4980174;28;20120;-80
2021/07/22 07:58:51;;;;;;;21.08;15.38;;;;;;;;;;4975166;28;20148;-80
2021/07/22 08:01:16;;;;;;;18.67;16.15;;;;;;;;;;5010234;28;20437;-80
2021/07/22 08:03:42;;;;;;;17.40;14.48;;;;;;;;;;4994120;28;20527;-80
2021/07/22 08:06:08;;;;;;;20.55;15.00;;;;;;;;;;4994049;28;20072;-80
2021/07/22 08:08:33;;;;;;;21.52;13.93;;;;;;;;;;4978962;28;20256;-80
2021/07/22 08:10:59;;;;;;;21.83;16.63;;;;;;;;;;5010865;28;20128;-80
2021/07/22 08:13:25;;;;;;;21.70;15.73;;;;;;;;;;5007704;28;20124;-80
2021/07/22 08:15:51;;;;;;;18.38;15.40;;;;;;;;;;4994267;28;20034;-79
2021/07/22 08:18:16;;;;;;;19.73;15.00;;;;;;;;;;4991261;28;20031;-80
2021/07/22 08:20:42;;;;;;;17.75;13.77;;;;;;;;;;4975103;28;20404;-80
2021/07/22 08:23:08;;;;;;;19.63;15.15;;;;;;;;;;5023794;28;20034;-78
2021/07/22 08:25:33;;;;;;;18.08;13.57;;;;;;;;;;5010908;28;20082;-78
2021/07/22 08:27:59;;;;;;;16.73;13.52;;;;;;;;;;4994510;28;20492;-79
2021/07/22 08:30:24;;;;;;;17.70;13.50;;;;;;;;;;5002756;28;20070;-78
2021/07/22 08:32:50;;;;;;;18.38;14.85;;;;;;;;;;5016156;28;20057;-78
2021/07/22 08:35:15;;;;;;;17.38;13.85;;;;;;;;;;4993938;28;20121;-78
2021/07/22 08:37:47;;;;;;;15.57;13.07;;;;;;;;;;4994105;28;20042;-78
2021/07/22 08:40:12;;;;;;;16.92;13.10;;;;;;;;;;5016943;28;20037;-78
2021/07/22 08:42:40;;;;;;;17.23;13.32;;;;;;;;;;5037406;28;20080;-77
2021/07/22 08:45:06;;;;;;;17.40;14.13;;;;;;;;;;5015738;28;20512;-77
2021/07/22 08:47:32;;;;;;;15.85;13.18;;;;;;;;;;5007593;28;20042;-77
2021/07/22 08:49:57;;;;;;;18.38;14.57;;;;;;;;;;5008749;28;20447;-77
2021/07/22 08:52:23;;;;;;;17.77;14.05;;;;;;;;;;5001608;28;20049;-77
2021/07/22 08:54:49;;;;;;;16.27;13.27;;;;;;;;;;5013982;28;20060;-76
2021/07/22 08:57:16;;;;;;;17.67;14.10;;;;;;;;;;5002579;28;20100;-77
2021/07/22 08:59:41;;;;;;;17.40;13.38;;;;;;;;;;5010442;28;20117;-77
2021/07/22 09:02:07;;;;;;;20.27;15.60;;;;;;;;;;4993864;28;20128;-77
2021/07/22 09:04:51;;;;;;;22.83;15.98;;;;;;;;;;4993569;28;20056;-77
2021/07/22 09:07:18;;;;;;;20.33;15.02;;;;;;;;;;5003278;28;20036;-77
2021/07/22 09:09:43;;;;;;;17.85;13.65;;;;;;;;;;5013748;28;20041;-77
2021/07/22 09:12:09;;;;;;;16.90;13.88;;;;;;;;;;4988789;28;20045;-77
2021/07/22 09:14:35;;;;;;;19.15;14.27;;;;;;;;;;5027166;28;20038;-78
2021/07/22 09:17:01;;;;;;;15.60;11.73;;;;;;;;;;4979573;28;20034;-80
2021/07/22 09:19:36;;;;;;;17.52;12.32;;;;;;;;;;5008459;28;20038;-80
2021/07/22 09:22:03;;;;;;;14.98;11.10;;;;;;;;;;5008991;28;20045;-78
2021/07/22 09:24:29;;;;;;;20.52;14.18;;;;;;;;;;4977923;28;20120;-78
2021/07/22 09:26:56;;;;;;;19.40;13.45;;;;;;;;;;5010383;28;20488;-79
2021/07/22 09:29:21;;;;;;;18.60;15.30;;;;;;;;;;5006607;28;20034;-78
2021/07/22 09:31:47;;;;;;;15.93;12.68;;;;;;;;;;4994790;28;20056;-78
2021/07/22 09:34:18;;;;;;;14.48;10.57;;;;;;;;;;4996949;28;20123;-79
2021/07/22 09:36:43;;;;;;;14.60;10.80;;;;;;;;;;5030020;28;20044;-79
2021/07/22 09:39:19;;;;;;;14.73;11.88;;;;;;;;;;4997424;28;20407;-80
2021/07/22 09:41:45;;;;;;;14.02;10.88;;;;;;;;;;5029425;28;20080;-80
2021/07/22 09:44:49;;;;;;;16.17;12.07;;;;;;;;;;5020238;28;20042;-79
2021/07/22 09:47:25;;;;;;;16.20;12.43;;;;;;;;;;4995820;28;20065;-79
2021/07/22 09:49:51;;;;;;;20.95;11.52;;;;;;;;;;4996492;28;20048;-79
2021/07/22 09:52:16;;;;;;;18.63;13.40;;;;;;;;;;5011897;28;20054;-79
2021/07/22 09:54:41;;;;;;;13.63;10.68;;;;;;;;;;5012051;28;20092;-79
2021/07/22 09:57:15;;;;;;;15.23;11.43;;;;;;;;;;4997093;28;20566;-80
2021/07/22 09:59:44;;;;;;;12.70;11.18;;;;;;;;;;4980485;28;20038;-79
2021/07/22 10:02:20;;;;;;;13.50;9.52;;;;;;;;;;4979317;28;20386;-80
2021/07/22 10:04:59;;;;;;;13.80;11.02;;;;;;;;;;4996427;28;20030;-80
2021/07/22 10:07:25;;;;;;;15.95;10.75;;;;;;;;;;5029128;28;20030;-80
2021/07/22 10:09:55;;;;;;;15.05;11.02;;;;;;;;;;4994114;28;20074;-79
2021/07/22 10:12:21;;;;;;;12.82;10.95;;;;;;;;;;4979091;28;20088;-79
2021/07/22 10:14:55;;;;;;;18.13;13.80;;;;;;;;;;5026223;28;20058;-80
2021/07/22 10:17:31;;;;;;;18.30;13.32;;;;;;;;;;5022951;28;20043;-79
2021/07/22 10:19:57;;;;;;;16.80;12.43;;;;;;;;;;4997417;28;20096;-79
2021/07/22 10:22:24;;;;;;;15.98;11.93;;;;;;;;;;4988766;28;20073;-79
2021/07/22 10:24:51;;;;;;;15.68;12.50;;;;;;;;;;5033179;28;20064;-80
2021/07/22 10:27:17;;;;;;;15.52;12.57;;;;;;;;;;5003790;28;20065;-80
2021/07/22 10:29:42;;;;;;;15.52;13.38;;;;;;;;;;4992884;28;20070;-80
2021/07/22 10:32:08;;;;;;;15.93;13.65;;;;;;;;;;5028373;28;20389;-80
2021/07/22 10:34:33;;;;;;;17.45;13.20;;;;;;;;;;4993458;28;20078;-79
2021/07/22 10:36:59;;;;;;;13.32;11.90;;;;;;;;;;5021467;28;20038;-80
2021/07/22 10:40:00;;;;;;;16.95;12.52;;;;;;;;;;4990676;28;20046;-79
2021/07/22 10:42:39;;;;;;;14.93;11.13;;;;;;;;;;5000651;28;20025;-79
2021/07/22 10:45:28;;;;;;;15.65;12.35;;;;;;;;;;5001766;28;20451;-79
2021/07/22 10:48:03;;;;;;;13.35;10.25;;;;;;;;;;5015994;28;20124;-80
2021/07/22 10:50:37;;;;;;;12.02;9.55;;;;;;;;;;4996162;28;20042;-80
2021/07/22 10:53:04;;;;;;;11.98;9.45;;;;;;;;;;5020091;28;20046;-79
2021/07/22 10:55:45;;;;;;;14.40;8.63;;;;;;;;;;5014284;28;20025;-81
2021/07/22 10:58:29;;;;;;;10.97;8.13;;;;;;;;;;5015882;28;20128;-80
2021/07/22 11:00:55;;;;;;;11.82;9.25;;;;;;;;;;5013621;28;20489;-81
2021/07/22 11:03:35;;;;;;;11.75;8.88;;;;;;;;;;4992354;28;20048;-80
2021/07/22 11:06:04;;;;;;;13.60;10.90;;;;;;;;;;5008939;28;20042;-81
2021/07/22 11:08:30;;;;;;;14.10;11.27;;;;;;;;;;5010643;28;20084;-80
2021/07/22 11:10:56;;;;;;;15.50;12.48;;;;;;;;;;5048234;28;20798;-80
2021/07/22 11:13:37;;;;;;;14.15;11.68;;;;;;;;;;4992989;28;20037;-81
2021/07/22 11:16:31;;;;;;;13.48;11.05;;;;;;;;;;5029718;28;20041;-81
2021/07/22 11:18:57;;;;;;;12.35;10.65;;;;;;;;;;5013486;28;20026;-80
2021/07/22 11:21:33;;;;;;;11.18;9.27;;;;;;;;;;5047301;28;20033;-79
2021/07/22 11:24:02;;;;;;;15.15;10.30;;;;;;;;;;4994719;28;20534;-79
2021/07/22 11:26:48;;;;;;;15.73;11.48;;;;;;;;;;5026738;28;20038;-79
2021/07/22 11:29:14;;;;;;;13.77;11.25;;;;;;;;;;4967551;28;20038;-79
2021/07/22 11:31:43;;;;;;;14.43;11.13;;;;;;;;;;5009595;28;20037;-80
2021/07/22 11:34:09;;;;;;;12.45;10.80;;;;;;;;;;5015669;28;20029;-80
2021/07/22 11:36:34;;;;;;;13.25;11.30;;;;;;;;;;5014272;28;20500;-79
2021/07/22 11:39:00;;;;;;;14.27;10.70;;;;;;;;;;5019444;28;20439;-79
2021/07/22 11:41:26;;;;;;;13.23;10.43;;;;;;;;;;5028354;28;20034;-79
2021/07/22 11:43:55;;;;;;;12.50;10.48;;;;;;;;;;4978696;28;20048;-79
2021/07/22 11:46:43;;;;;;;11.98;9.32;;;;;;;;;;4995277;28;20044;-79
2021/07/22 11:49:16;;;;;;;11.65;9.27;;;;;;;;;;4996463;28;20117;-79
2021/07/22 11:51:46;;;;;;;11.80;9.65;;;;;;;;;;5023724;28;20408;-78
2021/07/22 11:54:12;;;;;;;10.75;8.45;;;;;;;;;;4995749;28;20034;-78
2021/07/22 11:56:37;;;;;;;9.93;8.85;;;;;;;;;;5016427;28;20480;-78
2021/07/22 11:59:06;;;;;;;11.10;8.60;;;;;;;;;;4994274;28;20040;-78
2021/07/22 12:01:33;;;;;;;10.57;8.93;;;;;;;;;;5010937;28;20046;-78
2021/07/22 12:03:59;;;;;;;10.73;7.95;;;;;;;;;;5010460;28;20041;-78
2021/07/22 12:06:25;;;;;;;9.63;7.97;;;;;;;;;;4978140;28;20377;-79
2021/07/22 12:09:04;;;;;;;11.88;8.73;;;;;;;;;;5009644;28;20038;-79
2021/07/22 12:11:29;;;;;;;10.10;8.50;;;;;;;;;;4993390;28;20061;-79
2021/07/22 12:13:55;;;;;;;12.18;9.20;;;;;;;;;;4993609;28;20120;-78
2021/07/22 12:16:22;;;;;;;10.25;8.32;;;;;;;;;;5011032;28;20113;-79
2021/07/22 12:18:54;;;;;;;9.50;7.30;;;;;;;;;;5027219;28;20033;-79
2021/07/22 12:21:24;;;;;;;10.63;8.35;;;;;;;;;;5011007;28;20131;-78
2021/07/22 12:23:50;;;;;;;15.15;8.55;;;;;;;;;;5011121;28;20037;-80
2021/07/22 12:26:16;;;;;;;8.30;7.43;;;;;;;;;;5027193;28;20040;-79
2021/07/22 12:28:43;;;;;;;10.52;7.82;;;;;;;;;;5027551;28;20034;-79
2021/07/22 12:31:20;;;;;;;11.63;8.25;;;;;;;;;;4994765;28;20447;-79
2021/07/22 12:33:59;;;;;;;9.43;8.00;;;;;;;;;;5010991;28;20029;-79
2021/07/22 12:36:24;;;;;;;8.23;7.20;;;;;;;;;;5030982;28;20033;-79
2021/07/22 12:39:12;;;;;;;11.82;8.25;;;;;;;;;;4998084;28;20377;-78
2021/07/22 12:41:38;;;;;;;10.30;8.35;;;;;;;;;;5014089;28;20064;-79
2021/07/22 12:44:04;;;;;;;9.45;7.72;;;;;;;;;;5030702;28;20069;-79
2021/07/22 12:46:30;;;;;;;8.13;7.32;;;;;;;;;;5030354;28;20045;-79
2021/07/22 12:48:56;;;;;;;10.25;7.45;;;;;;;;;;4998116;28;20037;-79
2021/07/22 12:51:22;;;;;;;10.45;7.38;;;;;;;;;;5014122;28;20116;-79
2021/07/22 12:53:47;;;;;;;9.20;6.85;;;;;;;;;;4998105;28;20040;-79
2021/07/22 12:56:14;;;;;;;9.13;7.70;;;;;;;;;;5013675;28;20045;-79
2021/07/22 12:58:50;;;;;;;9.05;7.18;;;;;;;;;;5047058;28;20037;-79
2021/07/22 13:01:22;;;;;;;8.45;6.85;;;;;;;;;;5047472;28;20492;-78
2021/07/22 13:03:53;;;;;;;9.38;6.35;;;;;;;;;;5014109;28;20510;-78
2021/07/22 13:06:19;;;;;;;9.23;7.87;;;;;;;;;;5013838;28;20037;-78
2021/07/22 13:08:45;;;;;;;9.25;7.43;;;;;;;;;;5046880;28;20037;-79
2021/07/22 13:11:11;;;;;;;7.80;6.38;;;;;;;;;;5046919;28;20030;-79
2021/07/22 13:13:40;;;;;;;8.88;7.25;;;;;;;;;;5001702;28;20037;-79
2021/07/22 13:16:05;;;;;;;9.02;7.40;;;;;;;;;;5010908;28;20065;-79
2021/07/22 13:18:31;;;;;;;7.95;6.45;;;;;;;;;;5011178;28;20072;-79
2021/07/22 13:20:58;;;;;;;7.57;6.28;;;;;;;;;;5030966;28;20026;-79
2021/07/22 13:23:24;;;;;;;8.20;7.15;;;;;;;;;;5031127;28;20125;-79
2021/07/22 13:25:49;;;;;;;8.07;7.22;;;;;;;;;;5014083;28;20105;-79
2021/07/22 13:28:15;;;;;;;10.00;7.43;;;;;;;;;;5014839;28;20034;-79
2021/07/22 13:30:40;;;;;;;8.63;6.85;;;;;;;;;;5014687;28;20044;-79
2021/07/22 13:33:07;;;;;;;7.68;6.35;;;;;;;;;;5014283;28;20037;-79
2021/07/22 13:35:33;;;;;;;7.85;6.50;;;;;;;;;;5014072;28;20109;-79
2021/07/22 13:38:02;;;;;;;8.82;7.45;;;;;;;;;;5014346;28;20044;-79
2021/07/22 13:40:28;;;;;;;8.15;6.53;;;;;;;;;;5050062;28;20029;-79
2021/07/22 13:42:53;;;;;;;8.20;6.65;;;;;;;;;;5050346;28;20111;-79
2021/07/22 13:45:18;;;;;;;8.63;6.30;;;;;;;;;;5033401;28;20044;-79
2021/07/22 13:47:44;;;;;;;10.75;7.22;;;;;;;;;;5050029;28;20120;-79
2021/07/22 13:50:10;;;;;;;7.57;6.35;;;;;;;;;;5050557;28;20132;-79
2021/07/22 13:52:39;;;;;;;7.97;6.18;;;;;;;;;;5001311;28;20026;-79
2021/07/22 13:55:06;;;;;;;7.32;6.55;;;;;;;;;;5016974;28;20037;-79
2021/07/22 13:57:31;;;;;;;8.27;6.38;;;;;;;;;;5050516;28;20030;-79
2021/07/22 13:59:57;;;;;;;7.10;6.00;;;;;;;;;;5017078;28;20056;-79
2021/07/22 14:02:22;;;;;;;7.13;5.93;;;;;;;;;;5033401;28;20038;-79
2021/07/22 14:04:48;;;;;;;7.35;6.22;;;;;;;;;;5000450;28;20034;-79
2021/07/22 14:07:13;;;;;;;9.23;6.40;;;;;;;;;;5000472;28;20049;-79
2021/07/22 14:09:39;;;;;;;7.38;6.03;;;;;;;;;;5033181;28;20427;-79
2021/07/22 14:12:04;;;;;;;9.55;6.10;;;;;;;;;;5049446;28;20530;-79
2021/07/22 14:14:36;;;;;;;8.10;6.13;;;;;;;;;;5010729;28;20089;-79
2021/07/22 14:17:02;;;;;;;6.47;5.32;;;;;;;;;;5010290;28;20046;-79
2021/07/22 14:19:27;;;;;;;6.55;5.82;;;;;;;;;;4993753;28;20052;-79
2021/07/22 14:21:54;;;;;;;8.43;6.10;;;;;;;;;;5009993;28;20046;-79